首页
METAR-TAF:

METAR-TAF

机场 :

Offutt Air Force Base

奥马哈, 內布拉斯加州, 美国

纬度: 41-07N, 经度: 095-54W, 海拔: 319米

当前天气观测

该预报发布于51分钟前的04:56 UTC
风速10节,风向西北
温度 10°C
湿度 71%
气压 1009 hPa
能見度: 16.1公里
天空无云

METAR: KOFF 190456Z 31010KT 10SM CLR 10/05 A2979 RMK AO2A SLP092 RVRNO $

时间: 23:47 (05:47 UTC)

预报

该预报发布于3小时和47分钟前的02:00 UTC
预报有效从19日的 02点(UTC)到 20日的 08点(UTC)
风速10节,风向西北,有时为15节阵风
能见度10公里或以上
少量云层高于6500英尺
成为
从 19日的 05点(UTC)到 19日的 06点(UTC)
风速9节,风向西转西北
能见度10公里或以上
天空无云
成为
从 20日的 01点(UTC)到 20日的 02点(UTC)
风速6节,风向东南
能见度10公里或以上
散云层高于25000英尺

TAF: KOFF 190200Z 1902/2008 31010G15KT 9999 FEW065 QNH2973INS BECMG 1905/1906 29009KT 9999 SKC QNH2980INS BECMG 2001/2002 13006KT 9999 SCT250 QNH2982INS TX14/1922Z TN03/1912Z

超过4000个机场的气象观测和天气预报(METAR&TAF报告)。

可查询的气象台以黄色和红色小点在地图上表示。

将鼠标移到小点上方,可查看气象台名称。

然后点击查看天气观测和预报。

如需切换地图:点击带黑十字的绿色按钮放大地图;点击带横线的绿色按钮缩小地图;或者点击绿色箭头查看邻近地区的地图。


METAR-TAF: